sensor_id;sensor_type;location;lat;lon;timestamp;temperature;humidity
23347;DHT22;36852;45.466;11.066;2023-04-15T00:00:18;13.10;99.90
23347;DHT22;36852;45.466;11.066;2023-04-15T00:02:47;13.10;99.90
23347;DHT22;36852;45.466;11.066;2023-04-15T00:05:16;13.10;99.90
23347;DHT22;36852;45.466;11.066;2023-04-15T00:07:44;13.00;99.90
23347;DHT22;36852;45.466;11.066;2023-04-15T00:10:13;13.10;99.90
23347;DHT22;36852;45.466;11.066;2023-04-15T00:12:41;13.00;99.90
23347;DHT22;36852;45.466;11.066;2023-04-15T00:15:09;13.00;99.90
23347;DHT22;36852;45.466;11.066;2023-04-15T00:17:39;13.00;99.90
23347;DHT22;36852;45.466;11.066;2023-04-15T00:20:09;13.00;99.90
23347;DHT22;36852;45.466;11.066;2023-04-15T00:22:37;13.00;99.90
23347;DHT22;36852;45.466;11.066;2023-04-15T00:25:05;13.00;99.90
23347;DHT22;36852;45.466;11.066;2023-04-15T00:27:33;13.00;99.90
23347;DHT22;36852;45.466;11.066;2023-04-15T00:30:01;13.00;99.90
23347;DHT22;36852;45.466;11.066;2023-04-15T00:32:30;13.00;99.90
23347;DHT22;36852;45.466;11.066;2023-04-15T00:34:59;12.90;99.90
23347;DHT22;36852;45.466;11.066;2023-04-15T00:37:26;12.90;99.90
23347;DHT22;36852;45.466;11.066;2023-04-15T00:39:55;12.90;99.90
23347;DHT22;36852;45.466;11.066;2023-04-15T00:42:24;12.80;99.90
23347;DHT22;36852;45.466;11.066;2023-04-15T00:44:52;12.90;99.90
23347;DHT22;36852;45.466;11.066;2023-04-15T00:47:21;12.80;99.90
23347;DHT22;36852;45.466;11.066;2023-04-15T00:49:49;12.80;99.90
23347;DHT22;36852;45.466;11.066;2023-04-15T00:52:17;12.70;99.90
23347;DHT22;36852;45.466;11.066;2023-04-15T00:54:45;12.70;99.90
23347;DHT22;36852;45.466;11.066;2023-04-15T00:57:12;12.70;99.90
23347;DHT22;36852;45.466;11.066;2023-04-15T00:59:41;12.70;99.90
23347;DHT22;36852;45.466;11.066;2023-04-15T01:02:08;12.70;99.90
23347;DHT22;36852;45.466;11.066;2023-04-15T01:04:37;12.70;99.90
23347;DHT22;36852;45.466;11.066;2023-04-15T01:07:04;12.70;99.90
23347;DHT22;36852;45.466;11.066;2023-04-15T01:09:32;12.60;99.90
23347;DHT22;36852;45.466;11.066;2023-04-15T01:11:59;12.50;99.90
23347;DHT22;36852;45.466;11.066;2023-04-15T01:14:32;12.50;99.90
23347;DHT22;36852;45.466;11.066;2023-04-15T01:17:00;12.50;99.90
23347;DHT22;36852;45.466;11.066;2023-04-15T01:19:28;12.50;99.90
23347;DHT22;36852;45.466;11.066;2023-04-15T01:21:57;12.40;99.90
23347;DHT22;36852;45.466;11.066;2023-04-15T01:24:26;12.40;99.90
23347;DHT22;36852;45.466;11.066;2023-04-15T01:26:54;12.40;99.90
23347;DHT22;36852;45.466;11.066;2023-04-15T01:29:23;12.40;99.90
23347;DHT22;36852;45.466;11.066;2023-04-15T01:31:54;12.40;99.90
23347;DHT22;36852;45.466;11.066;2023-04-15T01:34:24;12.40;99.90
23347;DHT22;36852;45.466;11.066;2023-04-15T01:36:53;12.40;99.90
23347;DHT22;36852;45.466;11.066;2023-04-15T01:39:21;12.40;99.90
23347;DHT22;36852;45.466;11.066;2023-04-15T01:41:49;12.40;99.90
23347;DHT22;36852;45.466;11.066;2023-04-15T01:44:17;12.40;99.90
23347;DHT22;36852;45.466;11.066;2023-04-15T01:46:45;12.30;99.90
23347;DHT22;36852;45.466;11.066;2023-04-15T01:49:15;12.30;99.90
23347;DHT22;36852;45.466;11.066;2023-04-15T01:51:43;12.30;99.90
23347;DHT22;36852;45.466;11.066;2023-04-15T01:54:11;12.30;99.90
23347;DHT22;36852;45.466;11.066;2023-04-15T01:56:39;12.30;99.90
23347;DHT22;36852;45.466;11.066;2023-04-15T01:59:08;12.30;99.90
23347;DHT22;36852;45.466;11.066;2023-04-15T02:01:37;12.20;99.90
23347;DHT22;36852;45.466;11.066;2023-04-15T02:04:06;12.20;99.90
23347;DHT22;36852;45.466;11.066;2023-04-15T02:06:34;12.10;99.90
23347;DHT22;36852;45.466;11.066;2023-04-15T02:09:02;12.10;99.90
23347;DHT22;36852;45.466;11.066;2023-04-15T02:11:31;12.10;99.90
23347;DHT22;36852;45.466;11.066;2023-04-15T02:13:58;12.10;99.90
23347;DHT22;36852;45.466;11.066;2023-04-15T02:16:26;12.10;99.90
23347;DHT22;36852;45.466;11.066;2023-04-15T02:18:54;12.10;99.90
23347;DHT22;36852;45.466;11.066;2023-04-15T02:21:22;12.00;99.90
23347;DHT22;36852;45.466;11.066;2023-04-15T02:23:50;12.00;99.90
23347;DHT22;36852;45.466;11.066;2023-04-15T02:26:20;12.00;99.90
23347;DHT22;36852;45.466;11.066;2023-04-15T02:28:48;12.00;99.90
23347;DHT22;36852;45.466;11.066;2023-04-15T02:31:17;12.00;99.90
23347;DHT22;36852;45.466;11.066;2023-04-15T02:33:45;12.00;99.90
23347;DHT22;36852;45.466;11.066;2023-04-15T02:36:13;12.00;99.90
23347;DHT22;36852;45.466;11.066;2023-04-15T02:38:40;11.90;99.90
23347;DHT22;36852;45.466;11.066;2023-04-15T02:41:09;11.90;99.90
23347;DHT22;36852;45.466;11.066;2023-04-15T02:43:39;11.90;99.90
23347;DHT22;36852;45.466;11.066;2023-04-15T02:46:07;11.80;99.90
23347;DHT22;36852;45.466;11.066;2023-04-15T02:48:34;11.80;99.90
23347;DHT22;36852;45.466;11.066;2023-04-15T02:51:17;11.80;99.90
23347;DHT22;36852;45.466;11.066;2023-04-15T02:53:47;11.80;99.90
23347;DHT22;36852;45.466;11.066;2023-04-15T02:56:15;11.70;99.90
23347;DHT22;36852;45.466;11.066;2023-04-15T02:58:43;11.70;99.90
23347;DHT22;36852;45.466;11.066;2023-04-15T03:01:11;11.70;99.90
23347;DHT22;36852;45.466;11.066;2023-04-15T03:03:40;11.70;99.90
23347;DHT22;36852;45.466;11.066;2023-04-15T03:06:07;11.70;99.90
23347;DHT22;36852;45.466;11.066;2023-04-15T03:08:38;11.70;99.90
23347;DHT22;36852;45.466;11.066;2023-04-15T03:11:06;11.70;99.90
23347;DHT22;36852;45.466;11.066;2023-04-15T03:13:34;11.60;99.90
23347;DHT22;36852;45.466;11.066;2023-04-15T03:16:05;11.60;99.90
23347;DHT22;36852;45.466;11.066;2023-04-15T03:18:34;11.70;99.90
23347;DHT22;36852;45.466;11.066;2023-04-15T03:21:02;11.60;99.90
23347;DHT22;36852;45.466;11.066;2023-04-15T03:23:32;11.60;99.90
23347;DHT22;36852;45.466;11.066;2023-04-15T03:26:03;11.50;99.90
23347;DHT22;36852;45.466;11.066;2023-04-15T03:28:32;11.50;99.90
23347;DHT22;36852;45.466;11.066;2023-04-15T03:30:59;11.50;99.90
23347;DHT22;36852;45.466;11.066;2023-04-15T03:33:27;11.50;99.90
23347;DHT22;36852;45.466;11.066;2023-04-15T03:35:55;11.40;99.90
23347;DHT22;36852;45.466;11.066;2023-04-15T03:38:24;11.40;99.90
23347;DHT22;36852;45.466;11.066;2023-04-15T03:40:52;11.40;99.90
23347;DHT22;36852;45.466;11.066;2023-04-15T03:43:21;11.30;99.90
23347;DHT22;36852;45.466;11.066;2023-04-15T03:45:48;11.30;99.90
23347;DHT22;36852;45.466;11.066;2023-04-15T03:48:16;11.20;99.90
23347;DHT22;36852;45.466;11.066;2023-04-15T03:50:45;11.20;99.90
23347;DHT22;36852;45.466;11.066;2023-04-15T03:53:14;11.20;99.90
23347;DHT22;36852;45.466;11.066;2023-04-15T03:55:41;11.10;99.90
23347;DHT22;36852;45.466;11.066;2023-04-15T03:58:09;11.10;99.90
23347;DHT22;36852;45.466;11.066;2023-04-15T04:00:39;11.10;99.90
23347;DHT22;36852;45.466;11.066;2023-04-15T04:03:07;11.10;99.90
23347;DHT22;36852;45.466;11.066;2023-04-15T04:05:35;11.00;99.90
23347;DHT22;36852;45.466;11.066;2023-04-15T04:08:08;11.00;99.90
23347;DHT22;36852;45.466;11.066;2023-04-15T04:10:36;11.00;99.90
23347;DHT22;36852;45.466;11.066;2023-04-15T04:13:04;11.00;99.90
23347;DHT22;36852;45.466;11.066;2023-04-15T04:15:32;10.90;99.90
23347;DHT22;36852;45.466;11.066;2023-04-15T04:18:00;10.90;99.90
23347;DHT22;36852;45.466;11.066;2023-04-15T04:20:27;10.90;99.90
23347;DHT22;36852;45.466;11.066;2023-04-15T04:22:55;10.90;99.90
23347;DHT22;36852;45.466;11.066;2023-04-15T04:25:23;10.90;99.90
23347;DHT22;36852;45.466;11.066;2023-04-15T04:27:51;10.90;99.90
23347;DHT22;36852;45.466;11.066;2023-04-15T04:30:19;10.90;99.90
23347;DHT22;36852;45.466;11.066;2023-04-15T04:32:48;10.90;99.90
23347;DHT22;36852;45.466;11.066;2023-04-15T04:35:16;10.80;99.90
23347;DHT22;36852;45.466;11.066;2023-04-15T04:37:46;10.80;99.90
23347;DHT22;36852;45.466;11.066;2023-04-15T04:40:14;10.80;99.90
23347;DHT22;36852;45.466;11.066;2023-04-15T04:42:42;10.80;99.90
23347;DHT22;36852;45.466;11.066;2023-04-15T04:45:10;10.80;99.90
23347;DHT22;36852;45.466;11.066;2023-04-15T04:47:38;10.70;99.90
23347;DHT22;36852;45.466;11.066;2023-04-15T04:50:07;10.70;99.90
23347;DHT22;36852;45.466;11.066;2023-04-15T04:52:35;10.70;99.90
23347;DHT22;36852;45.466;11.066;2023-04-15T04:55:09;10.70;99.90
23347;DHT22;36852;45.466;11.066;2023-04-15T04:57:36;10.70;99.90
23347;DHT22;36852;45.466;11.066;2023-04-15T05:00:06;10.70;99.90
23347;DHT22;36852;45.466;11.066;2023-04-15T05:02:35;10.70;99.90
23347;DHT22;36852;45.466;11.066;2023-04-15T05:05:03;10.70;99.90
23347;DHT22;36852;45.466;11.066;2023-04-15T05:07:31;10.70;99.90
23347;DHT22;36852;45.466;11.066;2023-04-15T05:09:59;10.70;99.90
23347;DHT22;36852;45.466;11.066;2023-04-15T05:12:27;10.70;99.90
23347;DHT22;36852;45.466;11.066;2023-04-15T05:14:55;10.60;99.90
23347;DHT22;36852;45.466;11.066;2023-04-15T05:17:23;10.60;99.90
23347;DHT22;36852;45.466;11.066;2023-04-15T05:19:51;10.60;99.90
23347;DHT22;36852;45.466;11.066;2023-04-15T05:22:20;10.70;99.90
23347;DHT22;36852;45.466;11.066;2023-04-15T05:24:51;10.70;99.90
23347;DHT22;36852;45.466;11.066;2023-04-15T05:27:19;10.70;99.90
23347;DHT22;36852;45.466;11.066;2023-04-15T05:29:47;10.70;99.90
23347;DHT22;36852;45.466;11.066;2023-04-15T05:32:15;10.80;99.90
23347;DHT22;36852;45.466;11.066;2023-04-15T05:34:43;10.80;99.90
23347;DHT22;36852;45.466;11.066;2023-04-15T05:37:11;10.80;99.90
23347;DHT22;36852;45.466;11.066;2023-04-15T05:39:40;10.70;99.90
23347;DHT22;36852;45.466;11.066;2023-04-15T05:42:08;10.70;99.90
23347;DHT22;36852;45.466;11.066;2023-04-15T05:44:36;10.80;99.90
23347;DHT22;36852;45.466;11.066;2023-04-15T05:47:04;10.90;99.90
23347;DHT22;36852;45.466;11.066;2023-04-15T05:49:32;10.90;99.90
23347;DHT22;36852;45.466;11.066;2023-04-15T05:52:00;11.00;99.90
23347;DHT22;36852;45.466;11.066;2023-04-15T05:54:27;11.00;99.90
23347;DHT22;36852;45.466;11.066;2023-04-15T05:56:55;11.10;99.90
23347;DHT22;36852;45.466;11.066;2023-04-15T05:59:24;11.10;99.90
23347;DHT22;36852;45.466;11.066;2023-04-15T06:01:53;11.10;99.90
23347;DHT22;36852;45.466;11.066;2023-04-15T06:04:21;11.20;99.90
23347;DHT22;36852;45.466;11.066;2023-04-15T06:06:53;11.30;99.90
23347;DHT22;36852;45.466;11.066;2023-04-15T06:09:21;11.30;99.90
23347;DHT22;36852;45.466;11.066;2023-04-15T06:11:49;11.40;99.90
23347;DHT22;36852;45.466;11.066;2023-04-15T06:14:18;11.50;99.90
23347;DHT22;36852;45.466;11.066;2023-04-15T06:16:48;11.50;99.90
23347;DHT22;36852;45.466;11.066;2023-04-15T06:19:16;11.60;99.90
23347;DHT22;36852;45.466;11.066;2023-04-15T06:21:44;11.60;99.90
23347;DHT22;36852;45.466;11.066;2023-04-15T06:24:12;11.70;99.90
23347;DHT22;36852;45.466;11.066;2023-04-15T06:26:40;11.80;99.90
23347;DHT22;36852;45.466;11.066;2023-04-15T06:29:11;11.80;99.90
23347;DHT22;36852;45.466;11.066;2023-04-15T06:31:39;11.90;99.90
23347;DHT22;36852;45.466;11.066;2023-04-15T06:34:07;11.90;99.90
23347;DHT22;36852;45.466;11.066;2023-04-15T06:36:34;12.00;99.90
23347;DHT22;36852;45.466;11.066;2023-04-15T06:39:02;12.10;99.90
23347;DHT22;36852;45.466;11.066;2023-04-15T06:41:30;12.20;99.90
23347;DHT22;36852;45.466;11.066;2023-04-15T06:46:41;12.30;99.90
23347;DHT22;36852;45.466;11.066;2023-04-15T06:49:09;12.40;99.90
23347;DHT22;36852;45.466;11.066;2023-04-15T06:51:37;12.50;99.90
23347;DHT22;36852;45.466;11.066;2023-04-15T06:54:04;12.60;99.90
23347;DHT22;36852;45.466;11.066;2023-04-15T06:56:39;12.60;99.90
23347;DHT22;36852;45.466;11.066;2023-04-15T06:59:06;12.70;99.90
23347;DHT22;36852;45.466;11.066;2023-04-15T07:01:34;12.80;99.90
23347;DHT22;36852;45.466;11.066;2023-04-15T07:04:02;12.90;99.90
23347;DHT22;36852;45.466;11.066;2023-04-15T07:06:30;13.00;99.90
23347;DHT22;36852;45.466;11.066;2023-04-15T07:08:58;13.10;99.90
23347;DHT22;36852;45.466;11.066;2023-04-15T07:11:28;13.20;99.90
23347;DHT22;36852;45.466;11.066;2023-04-15T07:13:57;13.30;99.90
23347;DHT22;36852;45.466;11.066;2023-04-15T07:16:26;13.40;99.90
23347;DHT22;36852;45.466;11.066;2023-04-15T07:18:56;13.40;99.90
23347;DHT22;36852;45.466;11.066;2023-04-15T07:21:24;13.50;99.90
23347;DHT22;36852;45.466;11.066;2023-04-15T07:23:52;13.50;99.90
23347;DHT22;36852;45.466;11.066;2023-04-15T07:26:19;13.60;99.90
23347;DHT22;36852;45.466;11.066;2023-04-15T07:28:48;13.60;99.90
23347;DHT22;36852;45.466;11.066;2023-04-15T07:31:16;13.60;99.90
23347;DHT22;36852;45.466;11.066;2023-04-15T07:33:44;13.70;99.90
23347;DHT22;36852;45.466;11.066;2023-04-15T07:36:11;13.80;99.90
23347;DHT22;36852;45.466;11.066;2023-04-15T07:38:40;13.80;99.90
23347;DHT22;36852;45.466;11.066;2023-04-15T07:41:08;13.90;99.90
23347;DHT22;36852;45.466;11.066;2023-04-15T07:43:37;13.90;99.90
23347;DHT22;36852;45.466;11.066;2023-04-15T07:46:08;14.00;99.90
23347;DHT22;36852;45.466;11.066;2023-04-15T07:48:36;14.10;99.90
23347;DHT22;36852;45.466;11.066;2023-04-15T07:51:04;14.10;99.90
23347;DHT22;36852;45.466;11.066;2023-04-15T07:53:33;14.20;99.90
23347;DHT22;36852;45.466;11.066;2023-04-15T07:56:01;14.30;99.90
23347;DHT22;36852;45.466;11.066;2023-04-15T07:58:29;14.40;99.90
23347;DHT22;36852;45.466;11.066;2023-04-15T08:00:58;14.40;99.90
23347;DHT22;36852;45.466;11.066;2023-04-15T08:03:25;14.50;99.90
23347;DHT22;36852;45.466;11.066;2023-04-15T08:05:54;14.50;99.90
23347;DHT22;36852;45.466;11.066;2023-04-15T08:08:22;14.60;99.90
23347;DHT22;36852;45.466;11.066;2023-04-15T08:10:50;14.60;99.90
23347;DHT22;36852;45.466;11.066;2023-04-15T08:13:19;14.70;99.90
23347;DHT22;36852;45.466;11.066;2023-04-15T08:15:52;14.80;99.90
23347;DHT22;36852;45.466;11.066;2023-04-15T08:18:19;14.80;99.90
23347;DHT22;36852;45.466;11.066;2023-04-15T08:20:47;14.90;99.90
23347;DHT22;36852;45.466;11.066;2023-04-15T08:23:15;14.90;99.90
23347;DHT22;36852;45.466;11.066;2023-04-15T08:25:43;14.90;99.90
23347;DHT22;36852;45.466;11.066;2023-04-15T08:28:11;15.00;99.90
23347;DHT22;36852;45.466;11.066;2023-04-15T08:30:39;15.00;99.90
23347;DHT22;36852;45.466;11.066;2023-04-15T08:33:07;15.00;99.90
23347;DHT22;36852;45.466;11.066;2023-04-15T08:35:36;15.10;99.90
23347;DHT22;36852;45.466;11.066;2023-04-15T08:38:03;15.10;99.90
23347;DHT22;36852;45.466;11.066;2023-04-15T08:40:35;15.20;99.90
23347;DHT22;36852;45.466;11.066;2023-04-15T08:43:09;15.20;99.90
23347;DHT22;36852;45.466;11.066;2023-04-15T08:45:40;15.20;99.90
23347;DHT22;36852;45.466;11.066;2023-04-15T08:48:11;15.30;99.90
23347;DHT22;36852;45.466;11.066;2023-04-15T08:50:41;15.30;99.90
23347;DHT22;36852;45.466;11.066;2023-04-15T08:53:10;15.40;99.90
23347;DHT22;36852;45.466;11.066;2023-04-15T08:55:43;15.40;99.90
23347;DHT22;36852;45.466;11.066;2023-04-15T08:58:13;15.40;99.90
23347;DHT22;36852;45.466;11.066;2023-04-15T09:00:41;15.50;99.80
23347;DHT22;36852;45.466;11.066;2023-04-15T09:03:09;15.50;99.50
23347;DHT22;36852;45.466;11.066;2023-04-15T09:05:37;15.50;98.90
23347;DHT22;36852;45.466;11.066;2023-04-15T09:08:05;15.50;98.70
23347;DHT22;36852;45.466;11.066;2023-04-15T09:10:35;15.50;99.00
23347;DHT22;36852;45.466;11.066;2023-04-15T09:13:03;15.60;99.50
23347;DHT22;36852;45.466;11.066;2023-04-15T09:15:31;15.40;97.90
23347;DHT22;36852;45.466;11.066;2023-04-15T09:17:59;15.40;97.90
23347;DHT22;36852;45.466;11.066;2023-04-15T09:20:27;15.50;97.90
23347;DHT22;36852;45.466;11.066;2023-04-15T09:22:55;15.50;97.20
23347;DHT22;36852;45.466;11.066;2023-04-15T09:25:25;15.50;97.70
23347;DHT22;36852;45.466;11.066;2023-04-15T09:28:00;15.60;97.10
23347;DHT22;36852;45.466;11.066;2023-04-15T09:30:28;15.60;97.10
23347;DHT22;36852;45.466;11.066;2023-04-15T09:32:58;15.60;96.80
23347;DHT22;36852;45.466;11.066;2023-04-15T09:35:26;15.70;95.70
23347;DHT22;36852;45.466;11.066;2023-04-15T09:38:06;15.70;96.40
23347;DHT22;36852;45.466;11.066;2023-04-15T09:40:43;15.70;97.70
23347;DHT22;36852;45.466;11.066;2023-04-15T09:43:08;15.80;96.80
23347;DHT22;36852;45.466;11.066;2023-04-15T09:45:46;15.80;96.50
23347;DHT22;36852;45.466;11.066;2023-04-15T09:48:16;15.90;96.10
23347;DHT22;36852;45.466;11.066;2023-04-15T09:50:48;16.00;97.10
23347;DHT22;36852;45.466;11.066;2023-04-15T09:53:20;16.00;96.80
23347;DHT22;36852;45.466;11.066;2023-04-15T09:55:50;16.10;95.60
23347;DHT22;36852;45.466;11.066;2023-04-15T09:58:25;16.10;95.20
23347;DHT22;36852;45.466;11.066;2023-04-15T10:00:55;16.20;93.00
23347;DHT22;36852;45.466;11.066;2023-04-15T10:03:32;16.10;90.60
23347;DHT22;36852;45.466;11.066;2023-04-15T10:05:59;16.00;91.00
23347;DHT22;36852;45.466;11.066;2023-04-15T10:08:30;15.90;91.40
23347;DHT22;36852;45.466;11.066;2023-04-15T10:11:04;16.00;91.90
23347;DHT22;36852;45.466;11.066;2023-04-15T10:13:30;16.00;92.20
23347;DHT22;36852;45.466;11.066;2023-04-15T10:16:11;16.10;92.60
23347;DHT22;36852;45.466;11.066;2023-04-15T10:18:44;16.10;93.70
23347;DHT22;36852;45.466;11.066;2023-04-15T10:21:13;16.20;94.30
23347;DHT22;36852;45.466;11.066;2023-04-15T10:23:47;16.30;93.90
23347;DHT22;36852;45.466;11.066;2023-04-15T10:26:15;16.40;94.90
23347;DHT22;36852;45.466;11.066;2023-04-15T10:28:44;16.40;94.80
23347;DHT22;36852;45.466;11.066;2023-04-15T10:31:13;16.40;96.00
23347;DHT22;36852;45.466;11.066;2023-04-15T10:33:42;16.50;96.70
23347;DHT22;36852;45.466;11.066;2023-04-15T10:36:11;16.60;98.10
23347;DHT22;36852;45.466;11.066;2023-04-15T10:38:45;16.70;98.20
23347;DHT22;36852;45.466;11.066;2023-04-15T10:41:24;16.70;98.10
23347;DHT22;36852;45.466;11.066;2023-04-15T10:43:55;16.80;97.90
23347;DHT22;36852;45.466;11.066;2023-04-15T10:46:36;16.80;97.60
23347;DHT22;36852;45.466;11.066;2023-04-15T10:49:11;16.80;97.70
23347;DHT22;36852;45.466;11.066;2023-04-15T10:51:46;16.90;99.00
23347;DHT22;36852;45.466;11.066;2023-04-15T10:59:36;17.10;98.40
23347;DHT22;36852;45.466;11.066;2023-04-15T11:02:05;17.10;98.00
23347;DHT22;36852;45.466;11.066;2023-04-15T11:04:53;17.20;99.40
23347;DHT22;36852;45.466;11.066;2023-04-15T11:13:19;17.40;99.30
23347;DHT22;36852;45.466;11.066;2023-04-15T11:15:48;17.40;99.30
23347;DHT22;36852;45.466;11.066;2023-04-15T11:18:36;17.50;99.60
23347;DHT22;36852;45.466;11.066;2023-04-15T11:21:05;17.50;98.20
23347;DHT22;36852;45.466;11.066;2023-04-15T11:23:41;17.50;97.20
23347;DHT22;36852;45.466;11.066;2023-04-15T11:26:14;17.60;97.80
23347;DHT22;36852;45.466;11.066;2023-04-15T11:28:43;17.60;97.70
23347;DHT22;36852;45.466;11.066;2023-04-15T11:31:16;17.60;98.20
23347;DHT22;36852;45.466;11.066;2023-04-15T11:33:52;17.70;98.00
23347;DHT22;36852;45.466;11.066;2023-04-15T11:36:16;17.70;97.60
23347;DHT22;36852;45.466;11.066;2023-04-15T11:38:46;17.80;96.60
23347;DHT22;36852;45.466;11.066;2023-04-15T11:41:14;17.80;97.30
23347;DHT22;36852;45.466;11.066;2023-04-15T11:43:47;17.90;96.70
23347;DHT22;36852;45.466;11.066;2023-04-15T11:46:14;17.90;95.20
23347;DHT22;36852;45.466;11.066;2023-04-15T11:48:44;17.90;94.30
23347;DHT22;36852;45.466;11.066;2023-04-15T11:51:13;17.90;95.60
23347;DHT22;36852;45.466;11.066;2023-04-15T11:53:44;17.90;95.60
23347;DHT22;36852;45.466;11.066;2023-04-15T11:56:20;18.10;95.40
23347;DHT22;36852;45.466;11.066;2023-04-15T11:58:53;18.10;94.30
23347;DHT22;36852;45.466;11.066;2023-04-15T12:01:37;18.10;94.70
23347;DHT22;36852;45.466;11.066;2023-04-15T12:07:03;18.20;91.60
23347;DHT22;36852;45.466;11.066;2023-04-15T12:09:36;18.30;91.90
23347;DHT22;36852;45.466;11.066;2023-04-15T12:12:26;18.40;92.90
23347;DHT22;36852;45.466;11.066;2023-04-15T12:14:56;18.40;92.20
23347;DHT22;36852;45.466;11.066;2023-04-15T12:17:24;18.50;91.70
23347;DHT22;36852;45.466;11.066;2023-04-15T12:19:55;18.50;91.40
23347;DHT22;36852;45.466;11.066;2023-04-15T12:22:23;18.50;91.70
23347;DHT22;36852;45.466;11.066;2023-04-15T12:24:54;18.50;91.00
23347;DHT22;36852;45.466;11.066;2023-04-15T12:27:25;18.50;90.20
23347;DHT22;36852;45.466;11.066;2023-04-15T12:30:05;18.50;90.50
23347;DHT22;36852;45.466;11.066;2023-04-15T12:32:34;18.50;90.20
23347;DHT22;36852;45.466;11.066;2023-04-15T12:35:02;18.40;90.20
23347;DHT22;36852;45.466;11.066;2023-04-15T12:37:30;18.30;90.60
23347;DHT22;36852;45.466;11.066;2023-04-15T12:39:58;18.30;90.90
23347;DHT22;36852;45.466;11.066;2023-04-15T12:42:28;18.30;91.60
23347;DHT22;36852;45.466;11.066;2023-04-15T12:44:56;18.20;91.80
23347;DHT22;36852;45.466;11.066;2023-04-15T12:47:30;18.20;92.40
23347;DHT22;36852;45.466;11.066;2023-04-15T12:49:58;18.20;92.60
23347;DHT22;36852;45.466;11.066;2023-04-15T12:52:25;18.20;92.80
23347;DHT22;36852;45.466;11.066;2023-04-15T12:54:53;18.30;93.10
23347;DHT22;36852;45.466;11.066;2023-04-15T12:57:21;18.30;92.90
23347;DHT22;36852;45.466;11.066;2023-04-15T12:59:49;18.30;93.20
23347;DHT22;36852;45.466;11.066;2023-04-15T13:02:18;18.50;93.20
23347;DHT22;36852;45.466;11.066;2023-04-15T13:04:47;18.70;92.90
23347;DHT22;36852;45.466;11.066;2023-04-15T13:07:17;18.90;94.30
23347;DHT22;36852;45.466;11.066;2023-04-15T13:09:45;19.20;93.80
23347;DHT22;36852;45.466;11.066;2023-04-15T13:12:13;19.50;92.00
23347;DHT22;36852;45.466;11.066;2023-04-15T13:14:41;19.70;91.80
23347;DHT22;36852;45.466;11.066;2023-04-15T13:17:10;19.90;91.30
23347;DHT22;36852;45.466;11.066;2023-04-15T13:19:37;20.10;90.20
23347;DHT22;36852;45.466;11.066;2023-04-15T13:22:05;20.20;88.60
23347;DHT22;36852;45.466;11.066;2023-04-15T13:24:34;20.20;87.80
23347;DHT22;36852;45.466;11.066;2023-04-15T13:27:05;20.10;87.20
23347;DHT22;36852;45.466;11.066;2023-04-15T13:29:34;20.10;86.50
23347;DHT22;36852;45.466;11.066;2023-04-15T13:32:02;20.00;86.40
23347;DHT22;36852;45.466;11.066;2023-04-15T13:34:31;20.00;85.60
23347;DHT22;36852;45.466;11.066;2023-04-15T13:37:05;20.00;85.80
23347;DHT22;36852;45.466;11.066;2023-04-15T13:39:36;20.00;86.00
23347;DHT22;36852;45.466;11.066;2023-04-15T13:42:03;20.10;86.60
23347;DHT22;36852;45.466;11.066;2023-04-15T13:44:31;20.30;87.10
23347;DHT22;36852;45.466;11.066;2023-04-15T13:46:59;20.80;84.30
23347;DHT22;36852;45.466;11.066;2023-04-15T13:49:28;21.10;81.60
23347;DHT22;36852;45.466;11.066;2023-04-15T13:51:56;21.40;83.40
23347;DHT22;36852;45.466;11.066;2023-04-15T13:54:24;21.90;80.60
23347;DHT22;36852;45.466;11.066;2023-04-15T13:56:57;22.20;76.50
23347;DHT22;36852;45.466;11.066;2023-04-15T13:59:24;22.50;77.40
23347;DHT22;36852;45.466;11.066;2023-04-15T14:01:53;22.70;75.10
23347;DHT22;36852;45.466;11.066;2023-04-15T14:04:21;22.70;71.80
23347;DHT22;36852;45.466;11.066;2023-04-15T14:06:53;22.60;71.30
23347;DHT22;36852;45.466;11.066;2023-04-15T14:09:21;22.60;71.10
23347;DHT22;36852;45.466;11.066;2023-04-15T14:11:53;22.90;73.40
23347;DHT22;36852;45.466;11.066;2023-04-15T14:14:21;23.20;71.60
23347;DHT22;36852;45.466;11.066;2023-04-15T14:16:49;23.50;69.00
23347;DHT22;36852;45.466;11.066;2023-04-15T14:19:16;23.60;66.40
23347;DHT22;36852;45.466;11.066;2023-04-15T14:21:44;23.60;67.90
23347;DHT22;36852;45.466;11.066;2023-04-15T14:24:12;23.70;65.10
23347;DHT22;36852;45.466;11.066;2023-04-15T14:26:42;23.70;63.80
23347;DHT22;36852;45.466;11.066;2023-04-15T14:29:11;23.60;63.80
23347;DHT22;36852;45.466;11.066;2023-04-15T14:31:39;23.40;64.70
23347;DHT22;36852;45.466;11.066;2023-04-15T14:34:09;23.10;62.70
23347;DHT22;36852;45.466;11.066;2023-04-15T14:36:40;22.90;63.30
23347;DHT22;36852;45.466;11.066;2023-04-15T14:39:08;22.60;63.10
23347;DHT22;36852;45.466;11.066;2023-04-15T14:41:36;22.30;65.60
23347;DHT22;36852;45.466;11.066;2023-04-15T14:44:05;22.20;66.20
23347;DHT22;36852;45.466;11.066;2023-04-15T14:46:37;22.20;67.40
23347;DHT22;36852;45.466;11.066;2023-04-15T14:49:06;22.30;67.30
23347;DHT22;36852;45.466;11.066;2023-04-15T14:51:37;22.40;67.70
23347;DHT22;36852;45.466;11.066;2023-04-15T14:54:06;22.30;66.90
23347;DHT22;36852;45.466;11.066;2023-04-15T14:56:35;22.30;67.50
23347;DHT22;36852;45.466;11.066;2023-04-15T14:59:03;22.20;66.90
23347;DHT22;36852;45.466;11.066;2023-04-15T15:01:31;22.00;66.90
23347;DHT22;36852;45.466;11.066;2023-04-15T15:04:00;21.90;65.50
23347;DHT22;36852;45.466;11.066;2023-04-15T15:06:28;21.70;67.10
23347;DHT22;36852;45.466;11.066;2023-04-15T15:08:56;21.60;68.80
23347;DHT22;36852;45.466;11.066;2023-04-15T15:11:27;21.70;67.60
23347;DHT22;36852;45.466;11.066;2023-04-15T15:13:56;21.90;67.20
23347;DHT22;36852;45.466;11.066;2023-04-15T15:16:24;22.10;65.10
23347;DHT22;36852;45.466;11.066;2023-04-15T15:18:52;22.00;62.50
23347;DHT22;36852;45.466;11.066;2023-04-15T15:21:20;21.90;61.10
23347;DHT22;36852;45.466;11.066;2023-04-15T15:23:48;21.70;61.00
23347;DHT22;36852;45.466;11.066;2023-04-15T15:26:16;21.50;61.20
23347;DHT22;36852;45.466;11.066;2023-04-15T15:28:48;21.30;61.70
23347;DHT22;36852;45.466;11.066;2023-04-15T15:31:17;21.10;62.40
23347;DHT22;36852;45.466;11.066;2023-04-15T15:33:45;21.00;64.60
23347;DHT22;36852;45.466;11.066;2023-04-15T15:36:13;20.90;63.20
23347;DHT22;36852;45.466;11.066;2023-04-15T15:38:44;20.90;63.10
23347;DHT22;36852;45.466;11.066;2023-04-15T15:41:12;20.90;63.20
23347;DHT22;36852;45.466;11.066;2023-04-15T15:43:41;20.90;64.70